Eaton Bray, United Kingdom
Current Conditions -  °F | °C
As of 9:20 PM on Monday 22 Dec 2014 (Local Time) from EGGW Reporting Station
Broken Clouds Broken Clouds  
Wind Chill: 52°   Ceiling: 1600
Heat Index: 52°   Visibility: 6mi
Dew Point: 46°   Wind: 22mph
Humidity: 82%   Direction: 230°SW
Pressure: 30"   Gusts: NA
Location:  51.88°N, 0.59°W
Report Text: EGGW 222120Z 23019KT 9999 BKN016 11/08 Q1016
Loading
Personal Weather Stations






























Interactive Weather Map New forecast layout! Learn more

10-Day Weather Forecast

Advertisements
Track Severe Weather on mobile